RJOS(METAR)
08/23 01:00
METAR RJOS 221600Z 10003KT 9999 FEW008 SCT160 BKN200 28/27 Q1014 RMK
2ST008 3AC160 A2997=
戻る
トップページへ戻る
IMOC Co,.Ltd.